This is the latest recevied weather packets stored in our database for station/object AJ4FJ-13. If no packets are shown the sender has not sent any weather packets the latest 10 day(s).
| Time | Temp. | Humidity | Pressure | Rain* | Wind** | Luminosity | Snow |
|---|---|---|---|---|---|---|---|
| 1777854088 | 21.67° C | 41% | 1018 hPa | 0 mm | 0 m/s | - | - |
| 1777852881 | 23.89° C | 34% | 1018 hPa | 0 mm | 0 m/s | - | - |
| 1777851673 | 25° C | 32% | 1018 hPa | 0 mm | 1.79 m/s, 290° | - | - |
| 1777846561 | 24.44° C | 32% | 1019 hPa | 0 mm | 2.68 m/s, 288° | - | - |
| 1777846524 | 24.44° C | 32% | 1019 hPa | 0 mm | 2.68 m/s, 288° | - | - |
| 1777841073 | 22.22° C | 33% | 1020 hPa | 0 mm | 2.24 m/s, 338° | - | - |
| 1777837440 | 22.22° C | 34% | 1020 hPa | 0 mm | 3.58 m/s, 276° | - | - |
| 1777836834 | 22.22° C | 35% | 1020 hPa | 0 mm | 3.13 m/s, 17° | - | - |
| 1777836230 | 21.67° C | 37% | 1021 hPa | 0 mm | 1.79 m/s, 167° | - | - |
| 1777835320 | 21.67° C | 35% | 1021 hPa | 0 mm | 3.13 m/s, 289° | - | - |
| 1777835018 | 21.11° C | 35% | 1021 hPa | 0 mm | 0 m/s | - | - |
| 1777834415 | 21.67° C | 36% | 1021 hPa | 0 mm | 2.24 m/s, 351° | - | - |
| 1777833201 | 21.11° C | 35% | 1021 hPa | 0 mm | 2.68 m/s, 332° | - | - |
| 1777832593 | 20.56° C | 37% | 1021 hPa | 0 mm | 1.79 m/s, 306° | - | - |
| 1777831987 | 20.56° C | 36% | 1021 hPa | 0 mm | 2.68 m/s, 289° | - | - |
| 1777831685 | 20.56° C | 37% | 1021 hPa | 0 mm | 1.34 m/s, 323° | - | - |
| 1777829269 | 20.56° C | 42% | 1022 hPa | 0 mm | 3.13 m/s, 254° | - | - |
| 1777825641 | 18.89° C | 45% | 1022 hPa | 0 mm | 1.34 m/s, 270° | - | - |
| 1777824428 | 17.78° C | 45% | 1022 hPa | 0 mm | 1.79 m/s, 356° | - | - |
| 1777821202 | 16.67° C | 52% | 1021 hPa | 0 mm | 0 m/s | - | - |
| 1777821090 | 16.67° C | 52% | 1021 hPa | 0 mm | 0 m/s | - | - |
| 1777818663 | 15.56° C | 61% | 1021 hPa | 0 mm | 0 m/s | - | - |
| 1777817753 | 15° C | 62% | 1020 hPa | 0 mm | 1.34 m/s, 248° | - | - |
| 1777810205 | 8.33° C | 97% | 1018 hPa | 0 mm | 0 m/s | - | - |
| 1777810102 | 7.78° C | 97% | 1018 hPa | 0 mm | 0 m/s | - | - |
* Rain latest hour (hover to see other rain measurements)
** Current wind speed in m/s (hover to see current wind gust speed)